Time;durP1;ratioP1;P1;durP2;ratioP2;P2;SDS_P1;SDS_P2;PMS_P1;PMS_P2;Temp;Humidity;BMP_temperature;BMP_pressure;BME280_temperature;BME280_humidity;BME280_pressure;Samples;Min_cycle;Max_cycle;Signal;HPM_P1;HPM_P2
2022/12/10 00:01:48;;;;;;;96.20;72.72;;;;;;;3.87;100.00;100412.25;5017001;28;20076;-83
2022/12/10 00:04:15;;;;;;;141.32;93.07;;;;;;;3.93;100.00;100408.09;5009001;28;20368;-80
2022/12/10 00:06:43;;;;;;;166.40;98.15;;;;;;;3.84;100.00;100417.00;5023168;28;20046;-86
2022/12/10 00:09:14;;;;;;;113.57;83.35;;;;;;;3.85;100.00;100406.34;5019190;28;20042;-85
2022/12/10 00:11:41;;;;;;;101.38;75.55;;;;;;;3.75;100.00;100400.47;5025104;28;20061;-83
2022/12/10 00:14:12;;;;;;;104.13;74.78;;;;;;;3.70;100.00;100420.34;5027432;28;20081;-86
2022/12/10 00:16:39;;;;;;;116.45;83.10;;;;;;;3.67;100.00;100416.25;5023684;28;20049;-82
2022/12/10 00:19:08;;;;;;;115.40;81.53;;;;;;;3.70;100.00;100421.16;5020430;28;20084;-81
2022/12/10 00:21:36;;;;;;;122.93;80.60;;;;;;;3.80;100.00;100419.16;5019216;28;20050;-82
2022/12/10 00:24:04;;;;;;;98.85;70.50;;;;;;;3.67;100.00;100419.69;5026322;28;20045;-83
2022/12/10 00:26:32;;;;;;;93.65;73.30;;;;;;;3.60;100.00;100421.34;5020027;28;20057;-86
2022/12/10 00:29:01;;;;;;;92.35;69.97;;;;;;;3.62;100.00;100418.53;5022278;28;20119;-83
2022/12/10 00:31:32;;;;;;;96.10;82.30;;;;;;;3.57;100.00;100424.31;5023290;28;20057;-84
2022/12/10 00:34:08;;;;;;;108.28;82.82;;;;;;;3.52;100.00;100424.00;5022653;28;20475;-84
2022/12/10 00:36:37;;;;;;;87.93;73.15;;;;;;;3.25;100.00;100419.91;5017555;28;20107;-84
2022/12/10 00:39:05;;;;;;;73.15;65.32;;;;;;;3.24;100.00;100418.28;5021427;28;20103;-84
2022/12/10 00:41:32;;;;;;;92.85;71.97;;;;;;;3.31;100.00;100408.75;5018444;28;20073;-83
2022/12/10 00:44:00;;;;;;;135.57;86.68;;;;;;;3.38;100.00;100407.09;5022680;28;20058;-82
2022/12/10 00:46:27;;;;;;;148.48;93.25;;;;;;;3.32;100.00;100406.94;5025377;28;20057;-83
2022/12/10 00:48:56;;;;;;;139.48;91.45;;;;;;;3.36;100.00;100400.38;5017617;28;20054;-83
2022/12/10 00:51:26;;;;;;;176.35;104.65;;;;;;;3.33;100.00;100398.91;5016850;28;20120;-82
2022/12/10 00:53:55;;;;;;;131.82;89.47;;;;;;;3.13;100.00;100401.06;5018400;28;20487;-82
2022/12/10 00:56:34;;;;;;;140.07;99.18;;;;;;;3.19;100.00;100396.97;5019116;28;20054;-84
2022/12/10 00:59:01;;;;;;;132.25;86.50;;;;;;;3.29;100.00;100388.91;5020524;28;20446;-83
2022/12/10 01:01:31;;;;;;;141.38;82.20;;;;;;;3.00;100.00;100394.69;5127887;23;20131;-87
2022/12/10 01:03:59;;;;;;;142.07;82.25;;;;;;;2.96;100.00;100402.03;5005648;28;20038;-84
2022/12/10 01:06:47;;;;;;;140.27;86.93;;;;;;;3.16;100.00;100402.53;5001316;28;20073;-88
2022/12/10 01:09:17;;;;;;;145.07;92.80;;;;;;;3.16;100.00;100386.78;5001362;28;20452;-88
2022/12/10 01:11:46;;;;;;;122.13;78.43;;;;;;;3.12;100.00;100396.00;5001509;28;20112;-87
2022/12/10 01:14:17;;;;;;;114.03;75.05;;;;;;;3.35;100.00;100393.50;5002192;28;20034;-85
2022/12/10 01:16:56;;;;;;;151.57;87.97;;;;;;;3.21;100.00;100392.38;4999853;28;20046;-86
2022/12/10 01:19:24;;;;;;;113.72;83.75;;;;;;;3.41;100.00;100401.50;5000610;28;20062;-87
2022/12/10 01:21:54;;;;;;;95.20;74.75;;;;;;;3.44;100.00;100403.81;5002849;28;20124;-87
2022/12/10 01:24:28;;;;;;;97.15;72.95;;;;;;;3.48;100.00;100391.19;5000167;28;20061;-89
2022/12/10 01:26:56;;;;;;;112.95;76.05;;;;;;;3.57;100.00;100390.19;5021471;28;20050;-86
2022/12/10 01:29:23;;;;;;;110.90;71.60;;;;;;;3.49;100.00;100390.19;5021729;28;20056;-87
2022/12/10 01:31:51;;;;;;;113.20;76.38;;;;;;;3.56;100.00;100388.53;5020813;28;20050;-83
2022/12/10 01:34:19;;;;;;;112.97;71.88;;;;;;;3.57;100.00;100376.19;5024199;28;20030;-84
2022/12/10 01:36:52;;;;;;;120.45;79.72;;;;;;;3.60;100.00;100373.25;5023271;28;20124;-86
2022/12/10 01:39:21;;;;;;;131.52;76.43;;;;;;;3.63;100.00;100376.38;5022398;28;20117;-84
2022/12/10 01:41:50;;;;;;;163.50;94.78;;;;;;;3.43;100.00;100375.91;5028622;28;20080;-87
2022/12/10 01:44:58;;;;;;;193.90;113.53;;;;;;;3.40;100.00;100378.06;5022184;28;20124;-83
2022/12/10 01:47:31;;;;;;;196.07;122.30;;;;;;;3.43;100.00;100361.97;5022367;28;20049;-87
2022/12/10 01:50:09;;;;;;;206.27;121.07;;;;;;;3.44;100.00;100345.22;5025196;28;20104;-87
2022/12/10 01:52:37;;;;;;;198.80;108.47;;;;;;;3.50;100.00;100344.56;5021484;28;20122;-87
2022/12/10 01:55:43;;;;;;;231.65;111.07;;;;;;;3.42;100.00;100339.34;5016138;28;20467;-84
2022/12/10 01:58:10;;;;;;;213.88;109.45;;;;;;;3.33;100.00;100346.41;5016012;28;20042;-85
2022/12/10 02:00:43;;;;;;;221.27;110.78;;;;;;;3.35;100.00;100354.09;5018825;28;20046;-85
2022/12/10 02:03:25;;;;;;;266.80;115.88;;;;;;;3.31;100.00;100356.25;4998493;28;20050;-87
2022/12/10 02:06:02;;;;;;;222.20;120.38;;;;;;;3.35;100.00;100344.41;5001583;28;20117;-85
2022/12/10 02:08:34;;;;;;;223.00;130.95;;;;;;;3.33;100.00;100345.56;5003824;28;20026;-88
2022/12/10 02:11:16;;;;;;;183.40;111.82;;;;;;;3.26;100.00;100352.50;5001213;28;20050;-84
2022/12/10 02:14:00;;;;;;;222.52;116.25;;;;;;;3.24;100.00;100363.16;5004089;28;20030;-89
2022/12/10 02:16:32;;;;;;;250.63;109.22;;;;;;;3.16;100.00;100360.53;5003245;28;20046;-86
2022/12/10 02:19:10;;;;;;;154.18;103.53;;;;;;;3.10;100.00;100384.84;5006177;28;20042;-86
2022/12/10 02:21:41;;;;;;;166.60;104.18;;;;;;;3.37;100.00;100381.03;4995560;28;20477;-89
2022/12/10 02:24:14;;;;;;;163.02;108.55;;;;;;;3.48;100.00;100371.97;4998303;28;20073;-85
2022/12/10 02:26:48;;;;;;;151.70;96.68;;;;;;;3.56;100.00;100369.31;5003146;28;20066;-87
2022/12/10 02:29:27;;;;;;;131.07;89.55;;;;;;;3.59;100.00;100379.50;5003881;28;20446;-85
2022/12/10 02:32:01;;;;;;;116.65;76.45;;;;;;;3.59;100.00;100368.97;5000899;28;20451;-87
2022/12/10 02:34:31;;;;;;;124.55;81.25;;;;;;;3.48;100.00;100378.06;4997584;28;20537;-86
2022/12/10 02:37:01;;;;;;;101.65;71.97;;;;;;;3.55;100.00;100380.81;5001405;28;20407;-86
2022/12/10 02:39:33;;;;;;;114.43;76.95;;;;;;;3.52;100.00;100392.47;4999126;28;20046;-86
2022/12/10 02:42:11;;;;;;;102.45;65.28;;;;;;;3.67;100.00;100401.31;5000798;28;20050;-88
2022/12/10 02:44:42;;;;;;;121.18;77.20;;;;;;;3.68;100.00;100397.69;5003768;28;20058;-85
2022/12/10 02:47:10;;;;;;;111.30;62.97;;;;;;;3.58;100.00;100399.69;5010657;28;20041;-87
2022/12/10 02:49:40;;;;;;;122.13;72.53;;;;;;;3.64;100.00;100393.75;5017833;28;20115;-86
2022/12/10 02:52:08;;;;;;;127.53;69.82;;;;;;;3.62;100.00;100402.78;5018674;28;20050;-83
2022/12/10 02:54:39;;;;;;;112.03;79.45;;;;;;;3.72;100.00;100398.16;5023749;28;20059;-84
2022/12/10 02:57:18;;;;;;;103.28;66.05;;;;;;;3.75;100.00;100391.75;5020593;28;20046;-85
2022/12/10 03:00:00;;;;;;;92.75;62.70;;;;;;;3.92;100.00;100390.72;5020161;28;20026;-88
2022/12/10 03:02:35;;;;;;;110.97;72.63;;;;;;;3.90;100.00;100401.41;5023839;28;20066;-86
2022/12/10 03:05:06;;;;;;;90.13;67.32;;;;;;;3.93;100.00;100402.84;5026579;28;20057;-86
2022/12/10 03:07:37;;;;;;;87.70;63.17;;;;;;;4.09;100.00;100401.97;5017999;28;20053;-87
2022/12/10 03:10:15;;;;;;;80.85;69.13;;;;;;;4.16;100.00;100407.38;5019982;28;20053;-87
2022/12/10 03:12:48;;;;;;;73.60;65.65;;;;;;;4.16;100.00;100397.66;5021476;28;20077;-85
2022/12/10 03:15:20;;;;;;;59.28;52.88;;;;;;;4.09;100.00;100392.28;5021832;28;20054;-86
2022/12/10 03:17:49;;;;;;;71.88;61.90;;;;;;;4.16;100.00;100395.03;5025062;28;20073;-87
2022/12/10 03:20:17;;;;;;;88.60;68.53;;;;;;;4.14;100.00;100389.13;5026129;28;20050;-87
2022/12/10 03:22:47;;;;;;;74.88;63.40;;;;;;;4.20;100.00;100396.31;5016417;28;20050;-89
2022/12/10 03:25:18;;;;;;;108.13;62.38;;;;;;;4.11;100.00;100385.06;5017730;28;20058;-85
2022/12/10 03:27:49;;;;;;;72.47;65.15;;;;;;;4.29;100.00;100378.69;5021903;28;20120;-87
2022/12/10 03:30:16;;;;;;;100.57;70.32;;;;;;;4.26;100.00;100374.59;5026251;28;20093;-84
2022/12/10 03:32:45;;;;;;;80.05;65.25;;;;;;;4.33;100.00;100365.03;5022863;28;20560;-87
2022/12/10 03:35:13;;;;;;;100.95;71.78;;;;;;;4.25;100.00;100359.84;5022768;28;20053;-87
2022/12/10 03:37:41;;;;;;;125.35;81.97;;;;;;;4.18;100.00;100363.34;5019871;28;20046;-87
2022/12/10 03:40:09;;;;;;;102.30;71.35;;;;;;;4.26;100.00;100363.28;5023170;28;20057;-85
2022/12/10 03:42:38;;;;;;;119.82;81.43;;;;;;;4.24;100.00;100363.47;5025233;28;20542;-87
2022/12/10 03:45:07;;;;;;;98.40;62.92;;;;;;;4.18;100.00;100364.16;5026465;28;20053;-89
2022/12/10 03:47:41;;;;;;;99.47;68.57;;;;;;;4.21;100.00;100363.81;5022664;28;20113;-86
2022/12/10 03:50:20;;;;;;;107.20;65.88;;;;;;;4.11;100.00;100358.78;5020048;28;20088;-87
2022/12/10 03:52:53;;;;;;;103.18;60.10;;;;;;;4.24;100.00;100357.38;5022568;28;20053;-84
2022/12/10 03:55:20;;;;;;;83.47;62.70;;;;;;;4.22;100.00;100348.84;5012817;28;20145;-83
2022/12/10 03:57:49;;;;;;;90.38;60.92;;;;;;;4.25;100.00;100357.19;5008228;28;20474;-85
2022/12/10 04:00:16;;;;;;;87.60;66.63;;;;;;;4.23;100.00;100355.72;5023861;28;20065;-86
2022/12/10 04:02:47;;;;;;;92.15;59.05;;;;;;;4.21;100.00;100360.38;5022418;28;20123;-87
2022/12/10 04:05:13;;;;;;;87.25;64.70;;;;;;;4.12;100.00;100357.78;5026690;28;20112;-86
2022/12/10 04:07:42;;;;;;;93.50;69.13;;;;;;;4.21;100.00;100360.38;5029828;28;20046;-84
2022/12/10 04:10:10;;;;;;;227.38;113.25;;;;;;;4.15;100.00;100366.31;5017673;28;20131;-87
2022/12/10 04:16:26;;;;;;;246.82;125.10;;;;;;;4.18;100.00;100363.34;5021196;28;20112;-87
2022/12/10 04:18:25;;;;;;;113.65;63.17;;;;;;;4.19;100.00;100355.25;5007896;28;20053;-83
2022/12/10 04:26:55;;;;;;;123.35;62.55;;;;;;;4.05;100.00;100342.84;5023845;28;20469;-89
2022/12/10 04:29:23;;;;;;;107.05;66.97;;;;;;;4.09;100.00;100333.66;5024283;28;20112;-87
2022/12/10 04:31:49;;;;;;;94.00;63.45;;;;;;;3.99;100.00;100331.22;5028424;28;20054;-87
2022/12/10 04:34:17;;;;;;;110.65;68.90;;;;;;;3.96;100.00;100336.81;5020313;28;20471;-86
2022/12/10 04:36:46;;;;;;;127.10;64.40;;;;;;;3.91;100.00;100349.66;5027790;28;20049;-85
2022/12/10 04:39:17;;;;;;;102.80;66.20;;;;;;;3.97;100.00;100342.91;5024747;28;20060;-84
2022/12/10 04:41:45;;;;;;;95.70;57.50;;;;;;;3.92;100.00;100356.56;5021173;28;20057;-85
2022/12/10 04:44:13;;;;;;;97.32;58.85;;;;;;;4.02;100.00;100338.75;5020873;28;20053;-87
2022/12/10 04:46:39;;;;;;;100.47;57.35;;;;;;;3.86;100.00;100350.16;5021572;28;20064;-84
2022/12/10 04:49:07;;;;;;;88.93;59.20;;;;;;;3.95;100.00;100350.13;5024091;28;20038;-84
2022/12/10 04:51:34;;;;;;;83.45;57.00;;;;;;;3.92;100.00;100353.91;5023062;28;20054;-85
2022/12/10 04:54:00;;;;;;;104.18;58.63;;;;;;;3.78;100.00;100355.47;5019608;28;20117;-84
2022/12/10 04:56:29;;;;;;;100.70;68.38;;;;;;;3.90;100.00;100351.47;5024503;28;20052;-87
2022/12/10 04:58:56;;;;;;;129.35;75.95;;;;;;;3.81;100.00;100335.91;5023609;28;20108;-86
2022/12/10 05:01:24;;;;;;;120.22;73.32;;;;;;;3.77;100.00;100337.25;5021699;28;20391;-84
2022/12/10 05:03:51;;;;;;;133.32;68.72;;;;;;;3.75;100.00;100344.47;5019389;28;20046;-85
2022/12/10 05:06:20;;;;;;;174.40;79.65;;;;;;;3.81;100.00;100333.28;5022485;28;20112;-86
2022/12/10 05:08:48;;;;;;;106.38;61.45;;;;;;;3.79;100.00;100336.09;5026285;28;20437;-84
2022/12/10 05:11:17;;;;;;;130.10;69.82;;;;;;;3.74;100.00;100334.94;5018068;28;20077;-86
2022/12/10 05:13:47;;;;;;;95.25;58.17;;;;;;;3.77;100.00;100335.44;5023200;28;20046;-88
2022/12/10 05:16:16;;;;;;;100.07;60.03;;;;;;;3.78;100.00;100330.97;5022269;28;20108;-84
2022/12/10 05:18:43;;;;;;;95.45;64.70;;;;;;;3.85;100.00;100334.59;5021229;28;20522;-86
2022/12/10 05:21:13;;;;;;;89.80;57.70;;;;;;;3.85;100.00;100337.22;5020275;28;20516;-85
2022/12/10 05:23:41;;;;;;;91.70;60.20;;;;;;;3.78;100.00;100344.13;5017644;28;20050;-84
2022/12/10 05:26:10;;;;;;;93.45;63.28;;;;;;;3.74;100.00;100343.66;5018618;28;20050;-85
2022/12/10 05:28:39;;;;;;;91.38;62.17;;;;;;;3.77;100.00;100340.69;5026825;28;20073;-88
2022/12/10 05:31:12;;;;;;;124.45;64.45;;;;;;;3.77;100.00;100345.94;5019716;28;20369;-86
2022/12/10 05:33:41;;;;;;;93.30;62.85;;;;;;;3.88;100.00;100355.25;5022405;28;20062;-87
2022/12/10 05:36:18;;;;;;;76.75;57.17;;;;;;;3.94;100.00;100351.13;5024995;28;20049;-87
2022/12/10 05:38:45;;;;;;;74.50;55.08;;;;;;;3.83;100.00;100354.94;5016905;28;20104;-84
2022/12/10 05:41:14;;;;;;;94.40;62.55;;;;;;;3.82;100.00;100348.06;5017670;28;20116;-85
2022/12/10 05:43:50;;;;;;;85.70;58.53;;;;;;;3.67;100.00;100354.03;5024450;28;20046;-87
2022/12/10 05:46:32;;;;;;;76.18;55.60;;;;;;;3.65;100.00;100355.19;5026797;28;20033;-87
2022/12/10 05:49:00;;;;;;;72.25;54.25;;;;;;;3.73;100.00;100360.41;5018540;28;20050;-83
2022/12/10 05:51:30;;;;;;;57.78;49.63;;;;;;;3.80;100.00;100365.78;5021088;28;20061;-88
2022/12/10 05:53:58;;;;;;;59.60;49.38;;;;;;;3.83;100.00;100366.28;5025615;28;20466;-89
2022/12/10 05:56:27;;;;;;;60.53;49.15;;;;;;;3.80;100.00;100352.66;5016477;28;20061;-85
2022/12/10 05:58:55;;;;;;;65.47;52.40;;;;;;;3.82;100.00;100356.75;5015007;28;20050;-87
2022/12/10 06:01:24;;;;;;;72.10;53.70;;;;;;;3.90;100.00;100345.38;5018334;28;20461;-86
2022/12/10 06:03:53;;;;;;;363.80;115.55;;;;;;;3.87;100.00;100353.59;5018346;28;20137;-88
2022/12/10 06:06:22;;;;;;;402.30;131.25;;;;;;;3.93;100.00;100352.09;5018093;28;20116;-87
2022/12/10 06:08:49;;;;;;;928.22;334.05;;;;;;;3.96;100.00;100347.31;5018518;28;20077;-86
2022/12/10 06:11:16;;;;;;;298.27;113.00;;;;;;;4.08;100.00;100340.69;5018838;28;20061;-84
2022/12/10 06:13:43;;;;;;;148.20;76.72;;;;;;;4.08;100.00;100351.19;5021195;28;20030;-88
2022/12/10 06:16:12;;;;;;;79.82;61.42;;;;;;;4.16;100.00;100350.34;5020857;28;20123;-86
2022/12/10 06:18:39;;;;;;;70.85;55.47;;;;;;;4.23;100.00;100338.13;5016945;28;20049;-86
2022/12/10 06:21:10;;;;;;;93.15;64.22;;;;;;;4.33;100.00;100341.38;5022039;28;20045;-87
2022/12/10 06:23:47;;;;;;;143.07;77.93;;;;;;;4.41;100.00;100352.84;5021256;28;20046;-85
2022/12/10 06:26:17;;;;;;;85.55;60.28;;;;;;;4.28;100.00;100350.78;5025626;28;20478;-86
2022/12/10 06:28:46;;;;;;;80.20;59.15;;;;;;;4.42;100.00;100349.19;5024227;28;20033;-84
2022/12/10 06:31:13;;;;;;;83.07;60.85;;;;;;;4.25;100.00;100351.94;5018457;28;20050;-84
2022/12/10 06:33:39;;;;;;;72.68;58.35;;;;;;;4.39;100.00;100357.44;5019592;28;20042;-84
2022/12/10 06:36:10;;;;;;;79.80;59.70;;;;;;;4.53;100.00;100352.25;5021238;28;20104;-89
2022/12/10 06:38:38;;;;;;;72.07;61.30;;;;;;;4.33;100.00;100344.00;5017243;28;20131;-85
2022/12/10 06:41:07;;;;;;;129.30;82.95;;;;;;;4.33;100.00;100345.81;5020792;28;20470;-85
2022/12/10 06:43:33;;;;;;;158.80;97.55;;;;;;;4.48;100.00;100333.56;5023609;28;20552;-87
2022/12/10 06:46:06;;;;;;;90.40;72.18;;;;;;;4.58;100.00;100328.06;5029854;28;20065;-85
2022/12/10 06:48:36;;;;;;;72.03;61.75;;;;;;;4.61;100.00;100316.38;5030696;28;20034;-87
2022/12/10 06:51:03;;;;;;;107.32;79.95;;;;;;;4.55;100.00;100317.88;5037187;28;20036;-87
2022/12/10 06:53:32;;;;;;;80.63;64.85;;;;;;;4.65;100.00;100320.28;5018162;28;20070;-88
2022/12/10 06:56:00;;;;;;;84.53;68.55;;;;;;;4.76;100.00;100309.34;5017386;28;20490;-87
2022/12/10 06:58:29;;;;;;;98.10;77.53;;;;;;;4.89;100.00;100309.53;5019633;28;20049;-88
2022/12/10 07:01:05;;;;;;;74.15;65.57;;;;;;;4.83;100.00;100313.69;5027699;28;20061;-87
2022/12/10 07:03:32;;;;;;;62.45;55.85;;;;;;;4.88;100.00;100315.81;5018715;28;20073;-85
2022/12/10 07:06:05;;;;;;;66.97;59.17;;;;;;;5.01;100.00;100320.47;5030372;28;20054;-87
2022/12/10 07:08:44;;;;;;;60.55;54.63;;;;;;;5.10;100.00;100327.28;5026897;28;20152;-87
2022/12/10 07:11:14;;;;;;;58.45;52.17;;;;;;;5.23;100.00;100329.28;5030979;28;20053;-87
2022/12/10 07:13:41;;;;;;;62.83;56.50;;;;;;;5.23;100.00;100326.66;5030065;28;20057;-86
2022/12/10 07:16:14;;;;;;;62.92;56.58;;;;;;;5.43;100.00;100317.22;5017164;28;20042;-84
2022/12/10 07:18:41;;;;;;;66.22;57.58;;;;;;;5.52;100.00;100315.31;5023544;28;20069;-88
2022/12/10 07:21:15;;;;;;;63.35;56.85;;;;;;;5.69;100.00;100308.84;5020230;28;20057;-87
2022/12/10 07:23:42;;;;;;;62.33;56.17;;;;;;;5.94;100.00;100298.84;5024867;28;20137;-88
2022/12/10 07:26:10;;;;;;;67.97;60.75;;;;;;;6.10;100.00;100296.97;5022516;28;20053;-85
2022/12/10 07:28:38;;;;;;;74.80;65.00;;;;;;;6.34;100.00;100304.53;5021864;28;20053;-86
2022/12/10 07:31:09;;;;;;;71.47;63.80;;;;;;;6.68;100.00;100297.72;5023656;28;20466;-85
2022/12/10 07:33:36;;;;;;;52.42;48.25;;;;;;;6.28;100.00;100293.91;5013824;28;20049;-84
2022/12/10 07:36:14;;;;;;;48.30;44.30;;;;;;;6.35;100.00;100295.59;5027667;28;20045;-85
2022/12/10 07:38:43;;;;;;;48.60;44.80;;;;;;;6.68;100.00;100296.91;5030350;28;20518;-85
2022/12/10 07:41:15;;;;;;;51.20;46.92;;;;;;;6.66;100.00;100291.84;5028779;28;20049;-87
2022/12/10 07:43:45;;;;;;;51.10;46.90;;;;;;;6.59;100.00;100277.75;5019290;28;20532;-85
2022/12/10 07:46:28;;;;;;;51.67;47.35;;;;;;;6.63;100.00;100279.03;5021479;28;20065;-85
2022/12/10 07:48:56;;;;;;;52.33;47.83;;;;;;;6.63;100.00;100279.84;5026002;28;20057;-83
2022/12/10 07:51:24;;;;;;;52.03;47.83;;;;;;;6.69;100.00;100274.78;5018688;28;20115;-87
2022/12/10 07:53:59;;;;;;;47.80;44.08;;;;;;;6.62;100.00;100269.44;5020782;28;20053;-89
2022/12/10 07:56:33;;;;;;;46.25;42.45;;;;;;;6.56;100.00;100272.84;5032965;28;20057;-87
2022/12/10 07:59:00;;;;;;;46.90;43.42;;;;;;;6.87;100.00;100261.94;5023595;28;20050;-85
2022/12/10 08:01:27;;;;;;;45.85;42.38;;;;;;;7.14;100.00;100264.72;5021105;28;20127;-86
2022/12/10 08:03:57;;;;;;;46.85;43.20;;;;;;;7.20;100.00;100262.16;5016952;28;20399;-88
2022/12/10 08:06:25;;;;;;;48.00;44.33;;;;;;;7.18;100.00;100269.44;5021531;28;20434;-87
2022/12/10 08:08:52;;;;;;;48.70;44.92;;;;;;;8.49;100.00;100261.34;5021936;28;20437;-87
2022/12/10 08:11:20;;;;;;;51.83;48.33;;;;;;;9.19;100.00;100266.97;5022373;28;20045;-87
2022/12/10 08:13:49;;;;;;;49.38;46.00;;;;;;;9.47;100.00;100255.25;5023021;28;20041;-84
2022/12/10 08:16:17;;;;;;;48.15;44.75;;;;;;;9.76;100.00;100245.97;5016023;28;20131;-89
2022/12/10 08:18:45;;;;;;;48.03;44.35;;;;;;;8.97;100.00;100260.31;5015925;28;20394;-88
2022/12/10 08:21:22;;;;;;;50.88;47.10;;;;;;;9.55;100.00;100257.69;5026612;28;20038;-88
2022/12/10 08:23:50;;;;;;;47.60;44.20;;;;;;;10.49;100.00;100245.53;5018697;28;20046;-85
2022/12/10 08:26:18;;;;;;;49.63;45.80;;;;;;;10.77;100.00;100239.75;5020370;28;20050;-84
2022/12/10 08:28:46;;;;;;;53.13;48.67;;;;;;;10.82;100.00;100231.16;5022739;28;20494;-86
2022/12/10 08:31:22;;;;;;;52.95;48.90;;;;;;;11.65;100.00;100227.97;5024694;28;20564;-84
2022/12/10 08:33:49;;;;;;;52.78;48.78;;;;;;;12.01;100.00;100221.78;5019779;28;20379;-90
2022/12/10 08:36:18;;;;;;;53.75;50.15;;;;;;;12.76;100.00;100217.69;5025223;28;20053;-87
2022/12/10 08:38:51;;;;;;;56.08;51.78;;;;;;;13.20;100.00;100208.25;5022558;28;20132;-87
2022/12/10 08:41:20;;;;;;;52.38;48.78;;;;;;;13.18;100.00;100205.00;5020417;28;20050;-87
2022/12/10 08:43:47;;;;;;;52.97;49.38;;;;;;;13.01;100.00;100196.94;5024904;28;20466;-86
2022/12/10 08:46:16;;;;;;;52.22;48.67;;;;;;;13.10;100.00;100196.56;5020021;28;20064;-84
2022/12/10 08:48:45;;;;;;;53.58;49.80;;;;;;;12.68;100.00;100192.22;5016732;28;20057;-88
2022/12/10 08:51:16;;;;;;;53.80;49.78;;;;;;;12.82;100.00;100193.59;5014788;28;20556;-85
2022/12/10 08:53:44;;;;;;;55.53;51.08;;;;;;;11.29;100.00;100178.31;5014931;28;20120;-88
2022/12/10 08:56:11;;;;;;;50.65;46.85;;;;;;;12.41;100.00;100175.88;5014896;28;20184;-86
2022/12/10 08:58:38;;;;;;;52.15;47.95;;;;;;;12.99;100.00;100175.03;5014473;28;20049;-87
2022/12/10 09:01:07;;;;;;;51.28;47.60;;;;;;;12.91;100.00;100174.56;5015197;28;20468;-89
2022/12/10 09:03:34;;;;;;;49.13;45.05;;;;;;;11.55;100.00;100172.63;5015874;28;20054;-86
2022/12/10 09:06:05;;;;;;;49.22;45.75;;;;;;;12.74;100.00;100179.84;5014590;28;20145;-88
2022/12/10 09:08:32;;;;;;;53.55;49.70;;;;;;;13.15;100.00;100165.47;5014810;28;20050;-88
2022/12/10 09:10:59;;;;;;;49.15;45.70;;;;;;;15.12;100.00;100162.03;5015060;28;20470;-90
2022/12/10 09:13:25;;;;;;;48.70;45.40;;;;;;;14.39;100.00;100161.28;5015122;28;20050;-86
2022/12/10 09:15:53;;;;;;;48.28;44.97;;;;;;;14.02;100.00;100150.28;5015379;28;20060;-85
2022/12/10 09:18:20;;;;;;;50.65;47.15;;;;;;;13.43;100.00;100140.72;5014895;28;20112;-87
2022/12/10 09:20:47;;;;;;;48.97;45.60;;;;;;;14.52;100.00;100141.44;5015002;28;20061;-87
2022/12/10 09:23:15;;;;;;;48.40;44.75;;;;;;;14.71;100.00;100139.31;5015364;28;20053;-87
2022/12/10 09:25:42;;;;;;;49.42;45.65;;;;;;;14.60;100.00;100135.69;5002870;28;20116;-89
2022/12/10 09:28:09;;;;;;;49.60;45.95;;;;;;;14.51;100.00;100135.31;4994998;28;20046;-87
2022/12/10 09:30:35;;;;;;;48.05;44.60;;;;;;;15.02;100.00;100135.97;4995135;28;20069;-89
2022/12/10 09:33:02;;;;;;;57.75;52.35;;;;;;;13.92;100.00;100125.03;4995129;28;20058;-86
2022/12/10 09:35:29;;;;;;;52.90;48.78;;;;;;;14.52;100.00;100131.56;4995187;28;20558;-90
2022/12/10 09:37:56;;;;;;;52.55;48.78;;;;;;;15.83;100.00;100124.53;4995171;28;20120;-90
2022/12/10 09:40:34;;;;;;;50.47;46.78;;;;;;;14.59;100.00;100120.72;4994608;28;20054;-86
2022/12/10 09:43:05;;;;;;;54.15;50.17;;;;;;;14.69;100.00;100120.84;4995011;28;20128;-87
2022/12/10 09:45:41;;;;;;;50.73;46.67;;;;;;;16.60;100.00;100117.81;4995549;28;20137;-87
2022/12/10 09:48:20;;;;;;;48.90;45.42;;;;;;;15.13;100.00;100118.19;4994728;28;20297;-89
2022/12/10 09:50:54;;;;;;;49.17;45.92;;;;;;;13.96;100.00;100120.03;4994869;28;20479;-88
2022/12/10 09:53:23;;;;;;;55.15;51.72;;;;;;;15.61;100.00;100121.06;4994517;28;20085;-87
2022/12/10 09:55:52;;;;;;;51.22;48.05;;;;;;;16.32;100.00;100118.19;5007649;28;20054;-86
2022/12/10 09:58:21;;;;;;;52.80;49.38;;;;;;;17.15;100.00;100113.78;5014325;28;20046;-89
2022/12/10 10:00:52;;;;;;;49.05;45.85;;;;;;;16.57;100.00;100110.28;5014024;28;20297;-88
2022/12/10 10:03:19;;;;;;;50.20;47.10;;;;;;;16.27;100.00;100103.69;5014221;28;20108;-86
2022/12/10 10:05:48;;;;;;;48.85;45.65;;;;;;;16.37;100.00;100104.81;5013913;28;20049;-87
2022/12/10 10:08:24;;;;;;;48.97;45.88;;;;;;;15.62;100.00;100107.44;5013621;28;20498;-89
2022/12/10 10:10:52;;;;;;;53.50;49.60;;;;;;;15.25;100.00;100096.63;5014599;28;20376;-87
2022/12/10 10:13:30;;;;;;;53.13;49.70;;;;;;;15.47;100.00;100101.94;5014121;28;20054;-86
2022/12/10 10:15:58;;;;;;;55.10;51.63;;;;;;;14.82;100.00;100095.63;5014329;28;20049;-87
2022/12/10 10:18:33;;;;;;;54.22;50.53;;;;;;;14.27;100.00;100097.25;5014143;28;20061;-88
2022/12/10 10:21:00;;;;;;;54.97;51.00;;;;;;;14.33;100.00;100093.59;5013800;28;20046;-87
2022/12/10 10:23:27;;;;;;;53.15;49.45;;;;;;;13.23;100.00;100079.78;5013913;28;20056;-86
2022/12/10 10:25:56;;;;;;;54.85;50.33;;;;;;;13.36;100.00;100085.91;5013684;28;20050;-87
2022/12/10 10:28:23;;;;;;;53.53;49.78;;;;;;;12.89;100.00;100081.53;5014266;28;20060;-86
2022/12/10 10:30:52;;;;;;;55.10;51.10;;;;;;;14.42;100.00;100085.97;5013766;28;20107;-88
2022/12/10 10:33:19;;;;;;;53.45;49.40;;;;;;;13.46;100.00;100078.06;5013950;28;20390;-86
2022/12/10 10:35:49;;;;;;;54.97;50.63;;;;;;;13.58;100.00;100080.69;5014077;28;20054;-87
2022/12/10 10:38:20;;;;;;;56.10;51.78;;;;;;;12.48;100.00;100070.03;5012804;28;20111;-86
2022/12/10 10:40:51;;;;;;;58.90;54.30;;;;;;;12.17;100.00;100055.25;5013350;28;20046;-87
2022/12/10 10:43:23;;;;;;;58.55;53.17;;;;;;;13.14;100.00;100040.44;5013704;28;20060;-85
2022/12/10 10:45:53;;;;;;;57.15;51.80;;;;;;;13.58;100.00;100041.47;5013444;28;20050;-87
2022/12/10 10:48:22;;;;;;;50.75;46.95;;;;;;;14.25;100.00;100035.28;5011153;28;20050;-86
2022/12/10 10:50:51;;;;;;;54.38;50.03;;;;;;;13.97;100.00;100038.88;4996083;28;20380;-86
2022/12/10 10:53:31;;;;;;;56.42;52.53;;;;;;;12.20;100.00;100046.00;5011552;28;20493;-86
2022/12/10 10:56:08;;;;;;;56.00;52.15;;;;;;;12.55;100.00;100046.72;5012003;28;20093;-88
2022/12/10 10:58:37;;;;;;;52.63;48.63;;;;;;;14.08;100.00;100047.84;5013432;28;20073;-89
2022/12/10 11:01:06;;;;;;;54.33;50.67;;;;;;;12.67;100.00;100037.91;5011058;28;20375;-86
2022/12/10 11:03:36;;;;;;;56.90;52.60;;;;;;;11.91;100.00;100022.72;5012653;28;20116;-86
2022/12/10 11:06:08;;;;;;;60.78;55.83;;;;;;;12.90;100.00;100021.84;5009703;28;20058;-86
2022/12/10 11:08:39;;;;;;;55.90;51.15;;;;;;;13.21;100.00;100033.06;5011400;28;20054;-89
2022/12/10 11:11:11;;;;;;;56.25;51.53;;;;;;;13.88;100.00;100035.00;5008975;28;20497;-87
2022/12/10 11:13:39;;;;;;;56.90;52.38;;;;;;;14.36;100.00;100021.00;5013101;28;20054;-86
2022/12/10 11:16:13;;;;;;;60.00;55.15;;;;;;;14.39;100.00;100023.16;5012369;28;20116;-86
2022/12/10 11:18:42;;;;;;;60.95;56.20;;;;;;;13.89;100.00;100024.09;5004172;28;20089;-86
2022/12/10 11:21:21;;;;;;;63.60;58.15;;;;;;;14.75;100.00;100009.47;4995759;28;20443;-87
2022/12/10 11:23:51;;;;;;;68.68;61.97;;;;;;;17.04;100.00;100002.16;5012357;28;20451;-84
2022/12/10 11:26:51;;;;;;;66.40;60.80;;;;;;;16.07;100.00;99992.91;5012283;28;20124;-86
2022/12/10 11:29:33;;;;;;;63.30;58.10;;;;;;;15.72;100.00;99972.91;4995404;28;20054;-84